createdAt,value
2018-08-27T00:01:04.931Z,101081.72
2018-08-27T00:03:33.288Z,101072.58
2018-08-27T00:06:01.641Z,101067.23
2018-08-27T00:08:29.989Z,101065.12
2018-08-27T00:10:58.356Z,101066.95
2018-08-27T00:13:26.727Z,101070.48
2018-08-27T00:15:55.081Z,101062.99
2018-08-27T00:18:23.470Z,101059.12
2018-08-27T00:20:51.938Z,101062.27
2018-08-27T00:23:20.296Z,101053.61
2018-08-27T00:25:48.644Z,101051.88
2018-08-27T00:28:17.015Z,101052.91
2018-08-27T00:30:45.380Z,101054.50
2018-08-27T00:33:13.734Z,101051.48
2018-08-27T00:35:42.084Z,101056.98
2018-08-27T00:38:10.433Z,101055.91
2018-08-27T00:40:38.777Z,101054.45
2018-08-27T00:43:07.120Z,101053.91
2018-08-27T00:45:35.464Z,101055.69
2018-08-27T00:48:03.812Z,101054.34
2018-08-27T00:50:32.181Z,101051.10
2018-08-27T00:53:00.568Z,101047.44
2018-08-27T00:55:28.912Z,101054.07
2018-08-27T00:57:57.275Z,101054.84
2018-08-27T01:00:25.670Z,101047.70
2018-08-27T01:02:54.017Z,101046.94
2018-08-27T01:05:22.367Z,101037.70
2018-08-27T01:07:50.729Z,101030.09
2018-08-27T01:10:19.084Z,101022.90
2018-08-27T01:12:47.414Z,101028.50
2018-08-27T01:15:15.767Z,101035.25
2018-08-27T01:17:44.123Z,101036.67
2018-08-27T01:20:12.465Z,101024.39
2018-08-27T01:22:40.890Z,101026.52
2018-08-27T01:25:09.256Z,101028.27
2018-08-27T01:27:37.604Z,101024.76
2018-08-27T01:30:05.998Z,101022.77
2018-08-27T01:32:34.322Z,101016.70
2018-08-27T01:35:02.698Z,101013.73
2018-08-27T01:37:31.057Z,101015.51
2018-08-27T01:39:59.443Z,101023.55
2018-08-27T01:42:27.775Z,101016.18
2018-08-27T01:44:57.219Z,101014.05
2018-08-27T01:47:25.572Z,101018.75
2018-08-27T01:49:53.925Z,101016.75
2018-08-27T01:52:22.263Z,101017.66
2018-08-27T01:54:50.623Z,101020.77
2018-08-27T01:57:19.003Z,101022.50
2018-08-27T01:59:47.318Z,101018.78
2018-08-27T02:02:15.698Z,101016.63
2018-08-27T02:04:44.073Z,101016.97
2018-08-27T02:07:12.451Z,101016.01
2018-08-27T02:09:40.790Z,101015.05
2018-08-27T02:12:09.132Z,101005.36
2018-08-27T02:14:37.538Z,101006.38
2018-08-27T02:17:05.902Z,101006.13
2018-08-27T02:19:34.249Z,101010.04
2018-08-27T02:22:02.592Z,101009.08
2018-08-27T02:24:31.001Z,101009.66
2018-08-27T02:26:59.349Z,101003.16
2018-08-27T02:29:27.707Z,101004.27
2018-08-27T02:31:56.035Z,100994.42
2018-08-27T02:34:24.390Z,100996.73
2018-08-27T02:36:52.746Z,100996.97
2018-08-27T02:39:21.161Z,100994.19
2018-08-27T02:41:50.234Z,100994.43
2018-08-27T02:44:18.580Z,100987.30
2018-08-27T02:46:46.930Z,100984.84
2018-08-27T02:49:15.290Z,100979.60
2018-08-27T02:51:43.670Z,100978.97
2018-08-27T02:54:12.027Z,100979.45
2018-08-27T02:56:40.372Z,100979.77
2018-08-27T02:59:08.723Z,100973.09
2018-08-27T03:01:37.084Z,100974.05
2018-08-27T03:04:05.441Z,100967.41
2018-08-27T03:06:33.819Z,100965.09
2018-08-27T03:09:02.944Z,100970.88
2018-08-27T03:11:31.296Z,100966.69
2018-08-27T03:13:59.655Z,100963.03
2018-08-27T03:16:28.053Z,100958.60
2018-08-27T03:18:56.399Z,100961.36
2018-08-27T03:21:24.769Z,100960.11
2018-08-27T03:23:53.102Z,100954.96
2018-08-27T03:26:21.482Z,100953.52
2018-08-27T03:28:49.828Z,100954.79
2018-08-27T03:31:18.412Z,100951.61
2018-08-27T03:33:46.850Z,100945.13
2018-08-27T03:36:15.206Z,100951.86
2018-08-27T03:38:43.591Z,100954.51
2018-08-27T03:41:11.931Z,100950.61
2018-08-27T03:43:40.304Z,100941.27
2018-08-27T03:46:08.684Z,100939.21
2018-08-27T03:48:37.129Z,100937.38
2018-08-27T03:51:05.605Z,100939.98
2018-08-27T03:53:34.178Z,100946.82
2018-08-27T03:56:02.580Z,100950.14
2018-08-27T03:58:30.926Z,100948.62
2018-08-27T04:00:59.269Z,100947.51
2018-08-27T04:03:27.648Z,100944.28
2018-08-27T04:05:55.997Z,100957.42
2018-08-27T04:08:24.363Z,100952.13
2018-08-27T04:10:52.885Z,100955.35
2018-08-27T04:13:21.268Z,100945.69
2018-08-27T04:15:49.645Z,100943.80
2018-08-27T04:18:18.024Z,100938.56
2018-08-27T04:20:46.387Z,100940.62
2018-08-27T04:23:14.762Z,100944.25
2018-08-27T04:25:43.104Z,100939.97
2018-08-27T04:28:11.907Z,100945.53
2018-08-27T04:30:40.286Z,100944.81
2018-08-27T04:33:08.615Z,100949.58
2018-08-27T04:35:36.985Z,100940.92
2018-08-27T04:38:05.730Z,100946.16
2018-08-27T04:40:34.060Z,100947.66
2018-08-27T04:43:02.446Z,100942.66
2018-08-27T04:45:30.818Z,100935.63
2018-08-27T04:47:59.187Z,100944.19
2018-08-27T04:50:27.568Z,100935.05
2018-08-27T04:52:55.963Z,100929.91
2018-08-27T04:55:24.307Z,100927.78
2018-08-27T04:57:52.685Z,100925.18
2018-08-27T05:00:41.046Z,100922.54
2018-08-27T05:03:10.442Z,100920.17
2018-08-27T05:05:38.777Z,100918.73
2018-08-27T05:08:07.316Z,100917.86
2018-08-27T05:10:36.101Z,100915.97
2018-08-27T05:13:04.470Z,100913.84
2018-08-27T05:15:33.268Z,100916.44
2018-08-27T05:18:01.596Z,100910.57
2018-08-27T05:20:29.973Z,100905.89
2018-08-27T05:22:58.336Z,100911.03
2018-08-27T05:25:26.700Z,100906.84
2018-08-27T05:27:55.214Z,100905.33
2018-08-27T05:30:23.576Z,100894.94
2018-08-27T05:32:51.941Z,100882.55
2018-08-27T05:35:20.294Z,100884.38
2018-08-27T05:37:48.680Z,100881.53
2018-08-27T05:40:17.039Z,100882.94
2018-08-27T05:42:45.451Z,100879.22
2018-08-27T05:45:13.820Z,100875.78
2018-08-27T05:47:42.852Z,100868.63
2018-08-27T05:50:11.272Z,100875.08
2018-08-27T05:52:39.744Z,100872.75
2018-08-27T05:55:08.140Z,100876.53
2018-08-27T05:57:36.532Z,100874.27
2018-08-27T06:00:04.961Z,100879.88
2018-08-27T06:02:33.528Z,100867.20
2018-08-27T06:05:01.887Z,100870.05
2018-08-27T06:07:30.273Z,100860.58
2018-08-27T06:09:58.736Z,100853.70
2018-08-27T06:12:27.064Z,100852.94
2018-08-27T06:14:55.441Z,100843.99
2018-08-27T06:17:23.810Z,100844.02
2018-08-27T06:19:52.195Z,100850.31
2018-08-27T06:22:20.591Z,100848.75
2018-08-27T06:24:48.959Z,100842.56
2018-08-27T06:27:17.460Z,100833.11
2018-08-27T06:29:45.810Z,100835.34
2018-08-27T06:32:14.770Z,100838.44
2018-08-27T06:34:43.212Z,100834.77
2018-08-27T06:37:11.561Z,100842.59
2018-08-27T06:39:39.940Z,100830.11
2018-08-27T06:42:08.330Z,100829.50
2018-08-27T06:44:36.772Z,100817.93
2018-08-27T06:47:05.663Z,100813.81
2018-08-27T06:49:34.073Z,100812.27
2018-08-27T06:52:03.241Z,100812.64
2018-08-27T06:54:31.721Z,100811.77
2018-08-27T06:57:00.084Z,100815.47
2018-08-27T06:59:28.520Z,100800.58
2018-08-27T07:01:56.897Z,100795.42
2018-08-27T07:04:25.412Z,100800.41
2018-08-27T07:06:54.130Z,100799.48
2018-08-27T07:09:22.576Z,100797.83
2018-08-27T07:11:51.045Z,100795.57
2018-08-27T07:14:19.401Z,100808.14
2018-08-27T07:16:47.812Z,100809.25
2018-08-27T07:19:16.186Z,100807.97
2018-08-27T07:21:44.813Z,100799.92
2018-08-27T07:24:13.908Z,100800.44
2018-08-27T07:26:42.289Z,100798.92
2018-08-27T07:29:10.726Z,100800.37
2018-08-27T07:31:39.105Z,100792.99
2018-08-27T07:34:07.527Z,100796.64
2018-08-27T07:36:35.965Z,100790.16
2018-08-27T07:39:05.479Z,100780.58
2018-08-27T07:41:33.996Z,100773.38
2018-08-27T07:44:02.443Z,100767.56
2018-08-27T07:46:31.112Z,100772.23
2018-08-27T07:48:59.509Z,100767.34
2018-08-27T07:51:27.951Z,100761.44
2018-08-27T07:53:56.332Z,100758.70
2018-08-27T07:56:24.847Z,100750.80
2018-08-27T07:58:53.396Z,100757.71
2018-08-27T08:01:22.080Z,100766.13
2018-08-27T08:03:50.499Z,100753.50
2018-08-27T08:06:18.917Z,100757.17
2018-08-27T08:08:47.461Z,100762.37
2018-08-27T08:11:15.909Z,100754.34
2018-08-27T08:13:44.750Z,100742.83
2018-08-27T08:16:13.146Z,100737.39
2018-08-27T08:18:41.590Z,100732.31
2018-08-27T08:21:09.946Z,100728.06
2018-08-27T08:23:39.478Z,100722.27
2018-08-27T08:26:07.876Z,100727.52
2018-08-27T08:28:36.275Z,100722.66
2018-08-27T08:31:04.688Z,100730.88
2018-08-27T08:33:33.063Z,100736.20
2018-08-27T08:36:01.470Z,100726.59
2018-08-27T08:38:29.854Z,100724.09
2018-08-27T08:40:58.200Z,100731.47
2018-08-27T08:43:26.715Z,100738.09
2018-08-27T08:45:55.085Z,100733.78
2018-08-27T08:48:23.440Z,100729.94
2018-08-27T08:50:51.782Z,100728.47
2018-08-27T08:53:20.224Z,100730.83
2018-08-27T08:55:48.611Z,100732.42
2018-08-27T08:58:16.984Z,100736.81
2018-08-27T09:00:45.372Z,100730.53
2018-08-27T09:03:14.167Z,100719.95
2018-08-27T09:05:42.539Z,100724.91
2018-08-27T09:08:11.044Z,100726.06
2018-08-27T09:10:39.328Z,100723.16
2018-08-27T09:13:08.355Z,100717.98
2018-08-27T09:22:37.433Z,100726.12
2018-08-27T09:25:05.808Z,100722.38
2018-08-27T09:27:34.539Z,100727.23
2018-08-27T09:30:02.891Z,100721.36
2018-08-27T09:32:31.804Z,100724.56
2018-08-27T09:35:00.220Z,100723.70
2018-08-27T09:37:28.649Z,100730.81
2018-08-27T09:39:57.128Z,100728.28
2018-08-27T09:42:25.493Z,100731.20
2018-08-27T09:44:53.883Z,100725.23
2018-08-27T09:47:22.256Z,100730.45
2018-08-27T09:49:50.590Z,100727.98
2018-08-27T09:52:18.975Z,100728.69
2018-08-27T09:54:47.360Z,100724.00
2018-08-27T09:57:15.697Z,100723.14
2018-08-27T09:59:44.083Z,100725.55
2018-08-27T10:02:12.564Z,100712.34
2018-08-27T10:04:41.547Z,100717.39
2018-08-27T10:07:10.069Z,100707.45
2018-08-27T10:09:38.416Z,100708.72
2018-08-27T10:12:06.812Z,100714.00
2018-08-27T10:14:35.174Z,100706.56
2018-08-27T10:17:03.586Z,100705.45
2018-08-27T10:19:31.931Z,100716.02
2018-08-27T10:22:00.381Z,100719.69
2018-08-27T10:24:28.751Z,100700.34
2018-08-27T10:26:57.142Z,100704.58
2018-08-27T10:29:25.482Z,100704.67
2018-08-27T10:31:53.864Z,100701.41
2018-08-27T10:34:22.241Z,100698.17
2018-08-27T10:36:50.655Z,100698.94
2018-08-27T10:39:19.040Z,100685.26
2018-08-27T10:41:47.412Z,100692.17
2018-08-27T10:44:15.756Z,100680.98
2018-08-27T10:46:44.196Z,100692.11
2018-08-27T10:49:12.551Z,100697.80
2018-08-27T10:51:40.895Z,100704.36
2018-08-27T10:54:09.264Z,100695.08
2018-08-27T10:56:37.649Z,100693.52
2018-08-27T10:59:06.052Z,100704.14
2018-08-27T11:01:34.482Z,100698.20
2018-08-27T11:04:03.159Z,100694.70
2018-08-27T11:06:31.579Z,100692.23
2018-08-27T11:08:59.956Z,100690.70
2018-08-27T11:11:28.917Z,100685.16
2018-08-27T11:13:57.364Z,100687.53
2018-08-27T11:16:25.714Z,100682.93
2018-08-27T11:18:54.188Z,100684.98
2018-08-27T11:21:22.573Z,100679.53
2018-08-27T11:23:51.001Z,100684.63
2018-08-27T11:26:19.431Z,100682.78
2018-08-27T11:28:47.808Z,100686.70
2018-08-27T11:31:16.189Z,100684.22
2018-08-27T11:33:44.568Z,100682.44
2018-08-27T11:36:12.950Z,100671.17
2018-08-27T11:38:41.326Z,100676.21
2018-08-27T11:41:10.111Z,100673.31
2018-08-27T11:43:38.496Z,100685.77
2018-08-27T11:46:07.749Z,100679.53
2018-08-27T11:48:36.122Z,100690.92
2018-08-27T11:51:05.404Z,100687.59
2018-08-27T11:53:34.302Z,100689.38
2018-08-27T11:56:02.745Z,100687.77
2018-08-27T11:58:31.210Z,100687.58
2018-08-27T12:01:05.464Z,100699.66
2018-08-27T12:03:33.853Z,100695.84
2018-08-27T12:06:02.251Z,100703.28
2018-08-27T12:08:30.613Z,100706.70
2018-08-27T12:10:59.014Z,100698.08
2018-08-27T12:13:27.496Z,100700.21
2018-08-27T12:15:55.954Z,100701.99
2018-08-27T12:18:24.307Z,100698.93
2018-08-27T12:20:52.633Z,100702.82
2018-08-27T12:23:21.124Z,100709.47
2018-08-27T12:25:49.541Z,100703.00
2018-08-27T12:28:18.595Z,100706.53
2018-08-27T12:30:47.068Z,100703.80
2018-08-27T12:33:15.436Z,100707.98
2018-08-27T12:35:43.828Z,100712.55
2018-08-27T12:38:12.188Z,100715.37
2018-08-27T12:40:40.587Z,100706.33
2018-08-27T12:43:08.971Z,100707.09
2018-08-27T12:45:37.355Z,100712.73
2018-08-27T12:48:05.825Z,100710.00
2018-08-27T12:50:34.183Z,100711.55
2018-08-27T12:53:02.669Z,100711.98
2018-08-27T12:55:31.044Z,100709.83
2018-08-27T12:57:59.422Z,100708.97
2018-08-27T13:00:27.876Z,100714.78
2018-08-27T13:02:56.248Z,100708.66
2018-08-27T13:05:24.595Z,100712.91
2018-08-27T13:07:53.069Z,100712.55
2018-08-27T13:10:21.390Z,100715.02
2018-08-27T13:12:50.107Z,100705.08
2018-08-27T13:15:18.483Z,100698.31
2018-08-27T13:17:46.819Z,100709.52
2018-08-27T13:20:15.223Z,100708.98
2018-08-27T13:22:43.550Z,100708.71
2018-08-27T13:25:11.919Z,100707.47
2018-08-27T13:27:40.278Z,100710.79
2018-08-27T13:30:09.145Z,100711.53
2018-08-27T13:32:37.544Z,100712.00
2018-08-27T13:35:05.955Z,100704.40
2018-08-27T13:37:34.328Z,100710.64
2018-08-27T13:40:02.950Z,100704.52
2018-08-27T13:42:31.274Z,100706.27
2018-08-27T13:44:59.636Z,100707.25
2018-08-27T13:47:27.989Z,100715.06
2018-08-27T13:49:56.348Z,100710.70
2018-08-27T13:52:24.784Z,100713.34
2018-08-27T13:54:53.122Z,100703.44
2018-08-27T13:57:21.673Z,100715.06
2018-08-27T13:59:50.115Z,100709.67
2018-08-27T14:02:18.549Z,100704.06
2018-08-27T14:04:46.923Z,100704.98
2018-08-27T14:07:15.296Z,100703.70
2018-08-27T14:09:43.679Z,100708.04
2018-08-27T14:12:12.124Z,100703.20
2018-08-27T14:14:40.512Z,100710.27
2018-08-27T14:17:09.132Z,100707.87
2018-08-27T14:19:37.579Z,100724.75
2018-08-27T14:22:05.959Z,100713.09
2018-08-27T14:24:34.329Z,100717.24
2018-08-27T14:27:03.957Z,100721.75
2018-08-27T14:29:32.331Z,100721.36
2018-08-27T14:32:00.811Z,100725.94
2018-08-27T14:34:29.265Z,100712.73
2018-08-27T14:36:57.631Z,100713.17
2018-08-27T14:39:26.036Z,100708.30
2018-08-27T14:41:54.372Z,100708.16
2018-08-27T14:44:22.781Z,100702.61
2018-08-27T14:46:51.173Z,100700.27
2018-08-27T14:49:19.524Z,100700.98
2018-08-27T14:51:47.881Z,100705.34
2018-08-27T14:54:16.334Z,100707.69
2018-08-27T14:56:44.681Z,100698.48
2018-08-27T14:59:13.024Z,100704.38
2018-08-27T15:01:41.409Z,100702.42
2018-08-27T15:04:09.775Z,100703.44
2018-08-27T15:06:38.192Z,100707.47
2018-08-27T15:09:07.293Z,100711.71
2018-08-27T15:11:35.640Z,100709.58
2018-08-27T15:14:04.095Z,100706.42
2018-08-27T15:16:32.523Z,100706.06
2018-08-27T15:19:01.024Z,100706.27
2018-08-27T15:21:30.173Z,100707.43
2018-08-27T15:23:58.592Z,100709.78
2018-08-27T15:26:26.967Z,100702.67
2018-08-27T15:28:55.389Z,100707.02
2018-08-27T15:31:23.781Z,100703.80
2018-08-27T15:33:52.214Z,100709.27
2018-08-27T15:36:20.629Z,100712.35
2018-08-27T15:38:49.088Z,100712.23
2018-08-27T15:41:17.520Z,100714.58
2018-08-27T15:43:46.195Z,100713.30
2018-08-27T15:46:19.973Z,100712.70
2018-08-27T15:48:48.382Z,100712.86
2018-08-27T15:51:16.829Z,100715.44
2018-08-27T15:53:45.180Z,100720.78
2018-08-27T15:56:13.629Z,100714.58
2018-08-27T15:58:41.916Z,100715.44
2018-08-27T16:01:12.931Z,100713.48
2018-08-27T16:03:42.442Z,100713.25
2018-08-27T16:06:11.837Z,100711.73
2018-08-27T16:08:40.224Z,100709.16
2018-08-27T16:11:08.675Z,100715.98
2018-08-27T16:13:37.845Z,100714.88
2018-08-27T16:16:06.893Z,100710.44
2018-08-27T16:18:35.600Z,100710.34
2018-08-27T16:21:04.006Z,100709.34
2018-08-27T16:23:32.428Z,100706.96
2018-08-27T16:26:00.811Z,100705.24
2018-08-27T16:28:29.408Z,100704.14
2018-08-27T16:30:57.889Z,100701.21
2018-08-27T16:33:26.331Z,100702.34
2018-08-27T16:35:54.741Z,100706.70
2018-08-27T16:38:23.194Z,100703.62
2018-08-27T16:40:51.589Z,100701.55
2018-08-27T16:43:20.441Z,100705.55
2018-08-27T16:45:48.961Z,100697.75
2018-08-27T16:48:17.404Z,100702.50
2018-08-27T16:50:45.804Z,100703.62
2018-08-27T16:53:14.416Z,100702.91
2018-08-27T16:55:42.791Z,100701.31
2018-08-27T16:58:11.183Z,100699.59
2018-08-27T17:00:39.605Z,100705.20
2018-08-27T17:03:07.984Z,100704.09
2018-08-27T17:05:36.319Z,100703.00
2018-08-27T17:08:04.703Z,100704.27
2018-08-27T17:10:33.081Z,100707.52
2018-08-27T17:13:01.481Z,100712.98
2018-08-27T17:15:29.846Z,100706.81
2018-08-27T17:17:58.200Z,100708.17
2018-08-27T17:20:26.577Z,100710.30
2018-08-27T17:22:54.960Z,100713.89
2018-08-27T17:25:23.300Z,100720.72
2018-08-27T17:27:51.627Z,100717.39
2018-08-27T17:30:19.959Z,100719.61
2018-08-27T17:32:48.416Z,100722.63
2018-08-27T17:35:16.960Z,100730.07
2018-08-27T17:37:45.349Z,100749.42
2018-08-27T17:40:13.731Z,100745.33
2018-08-27T17:42:42.125Z,100754.27
2018-08-27T17:45:10.587Z,100755.14
2018-08-27T17:47:38.902Z,100761.71
2018-08-27T17:50:07.831Z,100759.48
2018-08-27T17:52:36.153Z,100758.88
2018-08-27T17:55:04.625Z,100763.48
2018-08-27T17:57:32.997Z,100767.21
2018-08-27T18:00:01.352Z,100773.78
2018-08-27T18:02:29.856Z,100782.11
2018-08-27T18:04:58.810Z,100787.81
2018-08-27T18:07:27.149Z,100789.43
2018-08-27T18:09:55.480Z,100793.78
2018-08-27T18:12:23.895Z,100798.16
2018-08-27T18:14:52.210Z,100798.41
2018-08-27T18:17:20.585Z,100804.36
2018-08-27T18:19:48.924Z,100810.67
2018-08-27T18:22:17.272Z,100816.66
2018-08-27T18:24:46.131Z,100813.68
2018-08-27T18:27:14.541Z,100812.56
2018-08-27T18:29:43.145Z,100823.36
2018-08-27T18:32:11.641Z,100825.72
2018-08-27T18:34:40.394Z,100822.78
2018-08-27T18:37:09.050Z,100817.82
2018-08-27T18:39:37.394Z,100826.64
2018-08-27T18:42:05.768Z,100824.77
2018-08-27T18:44:34.139Z,100822.79
2018-08-27T18:47:03.103Z,100822.56
2018-08-27T18:49:32.556Z,100829.98
2018-08-27T18:52:00.945Z,100837.42
2018-08-27T18:54:29.303Z,100842.72
2018-08-27T18:56:57.650Z,100840.13
2018-08-27T18:59:25.999Z,100846.95
2018-08-27T19:01:54.470Z,100847.20
2018-08-27T19:04:22.824Z,100846.71
2018-08-27T19:06:51.173Z,100855.13
2018-08-27T19:09:19.516Z,100861.41
2018-08-27T19:11:47.878Z,100859.31
2018-08-27T19:14:16.253Z,100858.83
2018-08-27T19:16:44.579Z,100862.52
2018-08-27T19:19:12.965Z,100869.59
2018-08-27T19:21:41.334Z,100878.73
2018-08-27T19:24:09.901Z,100872.19
2018-08-27T19:26:38.304Z,100881.31
2018-08-27T19:29:06.720Z,100876.01
2018-08-27T19:31:35.048Z,100877.87
2018-08-27T19:34:03.542Z,100876.14
2018-08-27T19:36:31.988Z,100881.19
2018-08-27T19:39:00.305Z,100880.33
2018-08-27T19:41:28.632Z,100886.17
2018-08-27T19:43:56.997Z,100888.49
2018-08-27T19:46:25.405Z,100890.35
2018-08-27T19:48:53.750Z,100896.79
2018-08-27T19:51:22.160Z,100905.82
2018-08-27T19:53:50.529Z,100911.63
2018-08-27T19:56:18.896Z,100920.39
2018-08-27T19:58:47.272Z,100923.38
2018-08-27T20:01:15.737Z,100923.48
2018-08-27T20:03:44.193Z,100927.42
2018-08-27T20:06:12.721Z,100929.52
2018-08-27T20:08:41.081Z,100927.78
2018-08-27T20:11:09.446Z,100930.38
2018-08-27T20:13:37.773Z,100938.67
2018-08-27T20:16:06.605Z,100939.08
2018-08-27T20:18:34.920Z,100939.30
2018-08-27T20:21:03.379Z,100934.95
2018-08-27T20:23:31.741Z,100938.08
2018-08-27T20:26:00.256Z,100943.52
2018-08-27T20:28:28.623Z,100943.12
2018-08-27T20:30:56.974Z,100952.41
2018-08-27T20:33:25.310Z,100947.56
2018-08-27T20:35:53.649Z,100958.08
2018-08-27T20:38:21.969Z,100953.36
2018-08-27T20:40:50.292Z,100963.88
2018-08-27T20:43:18.638Z,100978.70
2018-08-27T20:45:46.992Z,100975.47
2018-08-27T20:48:15.347Z,100980.97
2018-08-27T20:50:43.755Z,100983.90
2018-08-27T20:53:12.101Z,100982.27
2018-08-27T20:55:40.419Z,100985.98
2018-08-27T20:58:08.756Z,100988.55
2018-08-27T21:00:37.085Z,100982.75
2018-08-27T21:03:05.473Z,100992.86
2018-08-27T21:05:33.775Z,100991.89
2018-08-27T21:08:02.121Z,100993.84
2018-08-27T21:10:30.565Z,100991.97
2018-08-27T21:12:58.865Z,100999.84
2018-08-27T21:15:27.190Z,101001.43
2018-08-27T21:17:55.538Z,100997.33
2018-08-27T21:20:24.468Z,101006.84
2018-08-27T21:22:52.806Z,101003.33
2018-08-27T21:25:21.169Z,101010.47
2018-08-27T21:27:50.543Z,101010.09
2018-08-27T21:30:20.195Z,101012.91
2018-08-27T21:32:48.542Z,101016.30
2018-08-27T21:35:16.904Z,101022.67
2018-08-27T21:37:45.249Z,101022.81
2018-08-27T21:40:14.004Z,101016.80
2018-08-27T21:42:42.339Z,101023.31
2018-08-27T21:45:10.766Z,101019.85
2018-08-27T21:47:39.096Z,101020.80
2018-08-27T21:50:07.489Z,101032.30
2018-08-27T21:52:35.809Z,101024.88
2018-08-27T21:55:04.161Z,101038.59
2018-08-27T21:57:32.508Z,101046.59
2018-08-27T22:00:00.883Z,101042.23
2018-08-27T22:02:34.376Z,101045.19
2018-08-27T22:05:02.730Z,101047.95
2018-08-27T22:07:31.071Z,101049.69
2018-08-27T22:09:59.416Z,101047.42
2018-08-27T22:12:27.760Z,101051.95
2018-08-27T22:14:56.138Z,101052.75
2018-08-27T22:17:25.682Z,101054.22
2018-08-27T22:19:54.056Z,101062.20
2018-08-27T22:22:22.399Z,101065.30
2018-08-27T22:24:50.717Z,101070.36
2018-08-27T22:27:19.055Z,101074.84
2018-08-27T22:29:47.403Z,101080.27
2018-08-27T22:32:15.751Z,101075.66
2018-08-27T22:34:44.135Z,101084.79
2018-08-27T22:37:12.460Z,101084.17
2018-08-27T22:39:40.806Z,101089.73
2018-08-27T22:42:09.140Z,101094.37
2018-08-27T22:44:37.476Z,101094.61
2018-08-27T22:47:08.194Z,101088.69
2018-08-27T22:49:36.860Z,101098.20
2018-08-27T22:52:05.520Z,101094.81
2018-08-27T22:54:33.861Z,101098.60
2018-08-27T22:57:02.236Z,101098.23
2018-08-27T22:59:30.566Z,101106.00
2018-08-27T23:01:58.935Z,101101.92
2018-08-27T23:04:32.597Z,101106.31
2018-08-27T23:07:00.926Z,101104.67
2018-08-27T23:09:29.253Z,101109.11
2018-08-27T23:11:57.705Z,101111.45
2018-08-27T23:14:26.040Z,101115.15
2018-08-27T23:16:54.360Z,101115.35
2018-08-27T23:19:22.695Z,101113.62
2018-08-27T23:21:51.027Z,101115.75
2018-08-27T23:24:19.363Z,101116.36
2018-08-27T23:26:47.698Z,101122.77
2018-08-27T23:29:16.044Z,101120.55
2018-08-27T23:31:44.398Z,101119.64
2018-08-27T23:34:12.735Z,101120.05
2018-08-27T23:36:41.097Z,101117.34
2018-08-27T23:39:09.436Z,101124.32
2018-08-27T23:41:37.801Z,101128.02
2018-08-27T23:44:06.190Z,101131.50
2018-08-27T23:46:34.531Z,101131.30
2018-08-27T23:49:02.906Z,101132.86
2018-08-27T23:51:31.768Z,101133.47
2018-08-27T23:54:00.107Z,101128.03
2018-08-27T23:56:28.424Z,101127.25
2018-08-27T23:58:56.763Z,101128.61
